sensor_id;sensor_type;location;lat;lon;timestamp;P1;durP1;ratioP1;P2;durP2;ratioP2
11548;SDS011;61444;59.472;18.306;2023-04-24T00:00:16;3.70;;;3.03;;
11548;SDS011;61444;59.472;18.306;2023-04-24T00:02:27;3.53;;;2.90;;
11548;SDS011;61444;59.472;18.306;2023-04-24T00:04:37;2.90;;;2.50;;
11548;SDS011;61444;59.472;18.306;2023-04-24T00:06:46;3.03;;;2.37;;
11548;SDS011;61444;59.472;18.306;2023-04-24T00:09:00;3.03;;;2.40;;
11548;SDS011;61444;59.472;18.306;2023-04-24T00:11:11;4.03;;;2.80;;
11548;SDS011;61444;59.472;18.306;2023-04-24T00:13:20;4.83;;;3.17;;
11548;SDS011;61444;59.472;18.306;2023-04-24T00:15:29;3.90;;;2.63;;
11548;SDS011;61444;59.472;18.306;2023-04-24T00:17:38;3.80;;;2.80;;
11548;SDS011;61444;59.472;18.306;2023-04-24T00:19:47;2.60;;;2.40;;
11548;SDS011;61444;59.472;18.306;2023-04-24T00:21:57;3.13;;;2.50;;
11548;SDS011;61444;59.472;18.306;2023-04-24T00:24:06;3.73;;;2.67;;
11548;SDS011;61444;59.472;18.306;2023-04-24T00:26:18;2.50;;;2.13;;
11548;SDS011;61444;59.472;18.306;2023-04-24T00:28:27;2.33;;;1.87;;
11548;SDS011;61444;59.472;18.306;2023-04-24T00:30:36;3.73;;;2.70;;
11548;SDS011;61444;59.472;18.306;2023-04-24T00:32:46;3.77;;;2.50;;
11548;SDS011;61444;59.472;18.306;2023-04-24T00:34:55;2.77;;;2.20;;
11548;SDS011;61444;59.472;18.306;2023-04-24T00:37:04;3.23;;;2.30;;
11548;SDS011;61444;59.472;18.306;2023-04-24T00:39:13;3.43;;;2.50;;
11548;SDS011;61444;59.472;18.306;2023-04-24T00:41:24;3.77;;;2.30;;
11548;SDS011;61444;59.472;18.306;2023-04-24T00:43:33;3.07;;;2.20;;
11548;SDS011;61444;59.472;18.306;2023-04-24T00:45:42;3.03;;;2.27;;
11548;SDS011;61444;59.472;18.306;2023-04-24T00:47:52;2.23;;;1.77;;
11548;SDS011;61444;59.472;18.306;2023-04-24T00:50:01;2.67;;;1.97;;
11548;SDS011;61444;59.472;18.306;2023-04-24T00:52:11;3.63;;;2.70;;
11548;SDS011;61444;59.472;18.306;2023-04-24T00:54:23;3.30;;;2.10;;
11548;SDS011;61444;59.472;18.306;2023-04-24T00:56:34;3.10;;;2.50;;
11548;SDS011;61444;59.472;18.306;2023-04-24T00:58:43;4.63;;;2.40;;
11548;SDS011;61444;59.472;18.306;2023-04-24T01:00:53;4.30;;;2.70;;
11548;SDS011;61444;59.472;18.306;2023-04-24T01:03:04;3.03;;;2.53;;
11548;SDS011;61444;59.472;18.306;2023-04-24T01:05:16;3.13;;;2.60;;
11548;SDS011;61444;59.472;18.306;2023-04-24T01:07:25;4.00;;;2.73;;
11548;SDS011;61444;59.472;18.306;2023-04-24T01:09:34;2.90;;;2.60;;
11548;SDS011;61444;59.472;18.306;2023-04-24T01:11:45;3.70;;;2.67;;
11548;SDS011;61444;59.472;18.306;2023-04-24T01:13:55;3.23;;;2.30;;
11548;SDS011;61444;59.472;18.306;2023-04-24T01:16:05;4.37;;;2.50;;
11548;SDS011;61444;59.472;18.306;2023-04-24T01:18:14;3.60;;;2.70;;
11548;SDS011;61444;59.472;18.306;2023-04-24T01:20:23;4.07;;;2.57;;
11548;SDS011;61444;59.472;18.306;2023-04-24T01:22:35;4.13;;;2.63;;
11548;SDS011;61444;59.472;18.306;2023-04-24T01:24:44;3.53;;;2.67;;
11548;SDS011;61444;59.472;18.306;2023-04-24T01:26:53;4.00;;;2.70;;
11548;SDS011;61444;59.472;18.306;2023-04-24T01:29:02;4.27;;;2.70;;
11548;SDS011;61444;59.472;18.306;2023-04-24T01:31:11;3.77;;;2.60;;
11548;SDS011;61444;59.472;18.306;2023-04-24T01:33:20;4.93;;;2.50;;
11548;SDS011;61444;59.472;18.306;2023-04-24T01:35:29;4.77;;;2.77;;
11548;SDS011;61444;59.472;18.306;2023-04-24T01:37:39;5.43;;;2.83;;
11548;SDS011;61444;59.472;18.306;2023-04-24T01:39:48;4.27;;;2.37;;
11548;SDS011;61444;59.472;18.306;2023-04-24T01:41:57;3.83;;;2.27;;
11548;SDS011;61444;59.472;18.306;2023-04-24T01:44:06;4.17;;;2.70;;
11548;SDS011;61444;59.472;18.306;2023-04-24T01:46:15;4.57;;;2.77;;
11548;SDS011;61444;59.472;18.306;2023-04-24T01:48:25;4.27;;;2.40;;
11548;SDS011;61444;59.472;18.306;2023-04-24T01:50:34;4.97;;;2.47;;
11548;SDS011;61444;59.472;18.306;2023-04-24T01:52:45;5.03;;;2.50;;
11548;SDS011;61444;59.472;18.306;2023-04-24T01:54:54;3.93;;;2.40;;
11548;SDS011;61444;59.472;18.306;2023-04-24T01:57:03;5.07;;;2.43;;
11548;SDS011;61444;59.472;18.306;2023-04-24T01:59:12;4.17;;;2.13;;
11548;SDS011;61444;59.472;18.306;2023-04-24T02:01:21;3.40;;;2.30;;
11548;SDS011;61444;59.472;18.306;2023-04-24T02:03:32;4.67;;;2.43;;
11548;SDS011;61444;59.472;18.306;2023-04-24T02:05:43;4.33;;;2.20;;
11548;SDS011;61444;59.472;18.306;2023-04-24T02:07:54;5.43;;;2.53;;
11548;SDS011;61444;59.472;18.306;2023-04-24T02:10:03;3.63;;;2.33;;
11548;SDS011;61444;59.472;18.306;2023-04-24T02:12:12;4.50;;;2.20;;
11548;SDS011;61444;59.472;18.306;2023-04-24T02:14:22;4.40;;;2.30;;
11548;SDS011;61444;59.472;18.306;2023-04-24T02:16:31;4.37;;;2.27;;
11548;SDS011;61444;59.472;18.306;2023-04-24T02:18:42;6.23;;;2.67;;
11548;SDS011;61444;59.472;18.306;2023-04-24T02:20:51;4.67;;;2.20;;
11548;SDS011;61444;59.472;18.306;2023-04-24T02:23:02;3.80;;;2.10;;
11548;SDS011;61444;59.472;18.306;2023-04-24T02:25:11;3.60;;;1.90;;
11548;SDS011;61444;59.472;18.306;2023-04-24T02:27:19;4.20;;;2.33;;
11548;SDS011;61444;59.472;18.306;2023-04-24T02:29:28;4.57;;;1.83;;
11548;SDS011;61444;59.472;18.306;2023-04-24T02:31:37;5.17;;;1.70;;
11548;SDS011;61444;59.472;18.306;2023-04-24T02:33:46;3.07;;;1.33;;
11548;SDS011;61444;59.472;18.306;2023-04-24T02:35:55;3.53;;;1.60;;
11548;SDS011;61444;59.472;18.306;2023-04-24T02:38:05;3.10;;;1.23;;
11548;SDS011;61444;59.472;18.306;2023-04-24T02:40:14;2.83;;;1.40;;
11548;SDS011;61444;59.472;18.306;2023-04-24T02:42:23;3.83;;;1.13;;
11548;SDS011;61444;59.472;18.306;2023-04-24T02:44:32;3.40;;;1.30;;
11548;SDS011;61444;59.472;18.306;2023-04-24T02:46:41;2.37;;;1.17;;
11548;SDS011;61444;59.472;18.306;2023-04-24T02:48:51;2.90;;;1.13;;
11548;SDS011;61444;59.472;18.306;2023-04-24T02:51:00;5.43;;;1.63;;
11548;SDS011;61444;59.472;18.306;2023-04-24T02:53:10;2.17;;;1.30;;
11548;SDS011;61444;59.472;18.306;2023-04-24T02:55:19;2.87;;;1.30;;
11548;SDS011;61444;59.472;18.306;2023-04-24T02:57:28;3.83;;;1.50;;
11548;SDS011;61444;59.472;18.306;2023-04-24T02:59:37;4.00;;;1.63;;
11548;SDS011;61444;59.472;18.306;2023-04-24T03:01:46;4.33;;;1.30;;
11548;SDS011;61444;59.472;18.306;2023-04-24T03:03:56;3.00;;;1.07;;
11548;SDS011;61444;59.472;18.306;2023-04-24T03:06:05;4.80;;;1.50;;
11548;SDS011;61444;59.472;18.306;2023-04-24T03:08:16;3.73;;;1.57;;
11548;SDS011;61444;59.472;18.306;2023-04-24T03:10:24;3.60;;;1.20;;
11548;SDS011;61444;59.472;18.306;2023-04-24T03:12:33;3.07;;;1.20;;
11548;SDS011;61444;59.472;18.306;2023-04-24T03:14:42;4.40;;;1.57;;
11548;SDS011;61444;59.472;18.306;2023-04-24T03:16:52;4.03;;;1.20;;
11548;SDS011;61444;59.472;18.306;2023-04-24T03:19:01;3.90;;;1.43;;
11548;SDS011;61444;59.472;18.306;2023-04-24T03:21:09;4.20;;;1.27;;
11548;SDS011;61444;59.472;18.306;2023-04-24T03:23:20;4.70;;;1.47;;
11548;SDS011;61444;59.472;18.306;2023-04-24T03:25:29;2.43;;;1.10;;
11548;SDS011;61444;59.472;18.306;2023-04-24T03:27:38;3.30;;;1.43;;
11548;SDS011;61444;59.472;18.306;2023-04-24T03:29:47;3.27;;;1.30;;
11548;SDS011;61444;59.472;18.306;2023-04-24T03:32:00;4.50;;;1.67;;
11548;SDS011;61444;59.472;18.306;2023-04-24T03:34:09;3.20;;;1.03;;
11548;SDS011;61444;59.472;18.306;2023-04-24T03:36:17;5.83;;;1.23;;
11548;SDS011;61444;59.472;18.306;2023-04-24T03:38:28;4.80;;;1.40;;
11548;SDS011;61444;59.472;18.306;2023-04-24T03:40:37;2.87;;;1.17;;
11548;SDS011;61444;59.472;18.306;2023-04-24T03:42:46;3.37;;;1.47;;
11548;SDS011;61444;59.472;18.306;2023-04-24T03:44:55;2.23;;;1.33;;
11548;SDS011;61444;59.472;18.306;2023-04-24T03:47:04;2.10;;;1.30;;
11548;SDS011;61444;59.472;18.306;2023-04-24T03:49:13;3.80;;;1.50;;
11548;SDS011;61444;59.472;18.306;2023-04-24T03:51:21;3.23;;;1.20;;
11548;SDS011;61444;59.472;18.306;2023-04-24T03:53:32;2.93;;;1.10;;
11548;SDS011;61444;59.472;18.306;2023-04-24T03:55:40;4.20;;;1.30;;
11548;SDS011;61444;59.472;18.306;2023-04-24T03:57:49;3.17;;;1.20;;
11548;SDS011;61444;59.472;18.306;2023-04-24T03:59:58;2.93;;;1.27;;
11548;SDS011;61444;59.472;18.306;2023-04-24T04:02:06;3.90;;;1.40;;
11548;SDS011;61444;59.472;18.306;2023-04-24T04:04:16;3.23;;;1.30;;
11548;SDS011;61444;59.472;18.306;2023-04-24T04:06:25;3.80;;;1.50;;
11548;SDS011;61444;59.472;18.306;2023-04-24T04:08:36;3.73;;;1.30;;
11548;SDS011;61444;59.472;18.306;2023-04-24T04:10:45;3.47;;;1.40;;
11548;SDS011;61444;59.472;18.306;2023-04-24T04:12:54;5.77;;;1.30;;
11548;SDS011;61444;59.472;18.306;2023-04-24T04:15:03;3.93;;;1.33;;
11548;SDS011;61444;59.472;18.306;2023-04-24T04:17:13;3.17;;;1.50;;
11548;SDS011;61444;59.472;18.306;2023-04-24T04:19:22;2.97;;;1.27;;
11548;SDS011;61444;59.472;18.306;2023-04-24T04:21:30;4.40;;;1.87;;
11548;SDS011;61444;59.472;18.306;2023-04-24T04:23:41;3.33;;;1.60;;
11548;SDS011;61444;59.472;18.306;2023-04-24T04:25:49;3.03;;;1.50;;
11548;SDS011;61444;59.472;18.306;2023-04-24T04:27:58;3.43;;;1.50;;
11548;SDS011;61444;59.472;18.306;2023-04-24T04:30:08;3.73;;;1.57;;
11548;SDS011;61444;59.472;18.306;2023-04-24T04:32:17;4.47;;;1.57;;
11548;SDS011;61444;59.472;18.306;2023-04-24T04:34:26;3.30;;;1.70;;
11548;SDS011;61444;59.472;18.306;2023-04-24T04:36:36;3.93;;;1.70;;
11548;SDS011;61444;59.472;18.306;2023-04-24T04:38:48;3.90;;;1.50;;
11548;SDS011;61444;59.472;18.306;2023-04-24T04:40:56;4.70;;;1.57;;
11548;SDS011;61444;59.472;18.306;2023-04-24T04:43:05;3.70;;;1.70;;
11548;SDS011;61444;59.472;18.306;2023-04-24T04:45:14;2.83;;;1.50;;
11548;SDS011;61444;59.472;18.306;2023-04-24T04:47:25;4.43;;;1.80;;
11548;SDS011;61444;59.472;18.306;2023-04-24T04:49:35;4.13;;;1.77;;
11548;SDS011;61444;59.472;18.306;2023-04-24T04:51:44;3.83;;;1.80;;
11548;SDS011;61444;59.472;18.306;2023-04-24T04:53:54;3.03;;;1.50;;
11548;SDS011;61444;59.472;18.306;2023-04-24T04:56:03;2.97;;;1.60;;
11548;SDS011;61444;59.472;18.306;2023-04-24T04:58:12;2.77;;;1.43;;
11548;SDS011;61444;59.472;18.306;2023-04-24T05:00:21;3.70;;;1.50;;
11548;SDS011;61444;59.472;18.306;2023-04-24T05:02:31;5.33;;;1.90;;
11548;SDS011;61444;59.472;18.306;2023-04-24T05:04:40;3.07;;;1.53;;
11548;SDS011;61444;59.472;18.306;2023-04-24T05:06:49;3.83;;;1.70;;
11548;SDS011;61444;59.472;18.306;2023-04-24T05:09:00;4.13;;;1.93;;
11548;SDS011;61444;59.472;18.306;2023-04-24T05:11:10;3.63;;;1.60;;
11548;SDS011;61444;59.472;18.306;2023-04-24T05:13:18;2.77;;;1.77;;
11548;SDS011;61444;59.472;18.306;2023-04-24T05:15:44;3.13;;;1.63;;
11548;SDS011;61444;59.472;18.306;2023-04-24T05:17:54;3.37;;;1.57;;
11548;SDS011;61444;59.472;18.306;2023-04-24T05:20:03;4.40;;;1.67;;
11548;SDS011;61444;59.472;18.306;2023-04-24T05:22:13;3.10;;;1.60;;
11548;SDS011;61444;59.472;18.306;2023-04-24T05:24:25;4.43;;;1.50;;
11548;SDS011;61444;59.472;18.306;2023-04-24T05:26:34;2.13;;;1.00;;
11548;SDS011;61444;59.472;18.306;2023-04-24T05:28:44;2.90;;;1.00;;
11548;SDS011;61444;59.472;18.306;2023-04-24T05:30:53;1.90;;;1.30;;
11548;SDS011;61444;59.472;18.306;2023-04-24T05:33:02;2.20;;;1.10;;
11548;SDS011;61444;59.472;18.306;2023-04-24T05:35:11;2.33;;;1.00;;
11548;SDS011;61444;59.472;18.306;2023-04-24T05:37:20;1.40;;;0.90;;
11548;SDS011;61444;59.472;18.306;2023-04-24T05:39:30;1.87;;;1.10;;
11548;SDS011;61444;59.472;18.306;2023-04-24T05:41:39;1.67;;;0.87;;
11548;SDS011;61444;59.472;18.306;2023-04-24T05:43:47;3.03;;;1.07;;
11548;SDS011;61444;59.472;18.306;2023-04-24T05:45:57;2.20;;;1.17;;
11548;SDS011;61444;59.472;18.306;2023-04-24T05:48:06;2.90;;;1.27;;
11548;SDS011;61444;59.472;18.306;2023-04-24T05:50:15;2.87;;;1.43;;
11548;SDS011;61444;59.472;18.306;2023-04-24T05:52:23;1.10;;;0.90;;
11548;SDS011;61444;59.472;18.306;2023-04-24T05:54:33;1.87;;;1.03;;
11548;SDS011;61444;59.472;18.306;2023-04-24T05:56:43;3.20;;;1.13;;
11548;SDS011;61444;59.472;18.306;2023-04-24T05:58:52;1.93;;;1.10;;
11548;SDS011;61444;59.472;18.306;2023-04-24T06:01:01;2.40;;;1.37;;
11548;SDS011;61444;59.472;18.306;2023-04-24T06:03:09;2.23;;;1.30;;
11548;SDS011;61444;59.472;18.306;2023-04-24T06:05:19;1.57;;;1.07;;
11548;SDS011;61444;59.472;18.306;2023-04-24T06:07:28;2.27;;;1.13;;
11548;SDS011;61444;59.472;18.306;2023-04-24T06:09:38;3.90;;;1.23;;
11548;SDS011;61444;59.472;18.306;2023-04-24T06:11:47;2.23;;;1.27;;
11548;SDS011;61444;59.472;18.306;2023-04-24T06:13:57;2.37;;;1.10;;
11548;SDS011;61444;59.472;18.306;2023-04-24T06:16:05;2.27;;;1.30;;
11548;SDS011;61444;59.472;18.306;2023-04-24T06:18:14;3.33;;;1.07;;
11548;SDS011;61444;59.472;18.306;2023-04-24T06:20:23;2.70;;;1.37;;
11548;SDS011;61444;59.472;18.306;2023-04-24T06:22:32;2.17;;;1.60;;
11548;SDS011;61444;59.472;18.306;2023-04-24T06:24:43;2.37;;;1.30;;
11548;SDS011;61444;59.472;18.306;2023-04-24T06:26:53;1.53;;;1.30;;
11548;SDS011;61444;59.472;18.306;2023-04-24T06:29:03;2.17;;;1.30;;
11548;SDS011;61444;59.472;18.306;2023-04-24T06:31:13;1.70;;;1.20;;
11548;SDS011;61444;59.472;18.306;2023-04-24T06:33:23;2.13;;;1.23;;
11548;SDS011;61444;59.472;18.306;2023-04-24T06:35:32;2.13;;;1.33;;
11548;SDS011;61444;59.472;18.306;2023-04-24T06:37:41;2.67;;;1.67;;
11548;SDS011;61444;59.472;18.306;2023-04-24T06:39:52;3.00;;;1.67;;
11548;SDS011;61444;59.472;18.306;2023-04-24T06:42:00;2.87;;;1.40;;
11548;SDS011;61444;59.472;18.306;2023-04-24T06:44:09;2.00;;;1.30;;
11548;SDS011;61444;59.472;18.306;2023-04-24T06:46:17;2.17;;;1.30;;
11548;SDS011;61444;59.472;18.306;2023-04-24T06:48:28;2.83;;;1.50;;
11548;SDS011;61444;59.472;18.306;2023-04-24T06:50:37;2.13;;;1.40;;
11548;SDS011;61444;59.472;18.306;2023-04-24T06:52:47;3.43;;;1.60;;
11548;SDS011;61444;59.472;18.306;2023-04-24T06:55:01;2.87;;;1.50;;
11548;SDS011;61444;59.472;18.306;2023-04-24T06:57:10;1.70;;;1.33;;
11548;SDS011;61444;59.472;18.306;2023-04-24T06:59:19;2.53;;;1.50;;
11548;SDS011;61444;59.472;18.306;2023-04-24T07:01:28;2.80;;;1.60;;
11548;SDS011;61444;59.472;18.306;2023-04-24T07:03:37;2.33;;;1.53;;
11548;SDS011;61444;59.472;18.306;2023-04-24T07:05:46;3.63;;;1.50;;
11548;SDS011;61444;59.472;18.306;2023-04-24T07:07:55;2.93;;;1.70;;
11548;SDS011;61444;59.472;18.306;2023-04-24T07:10:07;2.07;;;1.57;;
11548;SDS011;61444;59.472;18.306;2023-04-24T07:12:16;3.13;;;1.53;;
11548;SDS011;61444;59.472;18.306;2023-04-24T07:14:27;2.43;;;1.73;;
11548;SDS011;61444;59.472;18.306;2023-04-24T07:16:36;2.67;;;1.70;;
11548;SDS011;61444;59.472;18.306;2023-04-24T07:18:45;1.73;;;1.50;;
11548;SDS011;61444;59.472;18.306;2023-04-24T07:20:53;3.03;;;1.60;;
11548;SDS011;61444;59.472;18.306;2023-04-24T07:23:02;3.07;;;1.80;;
11548;SDS011;61444;59.472;18.306;2023-04-24T07:25:12;2.67;;;1.80;;
11548;SDS011;61444;59.472;18.306;2023-04-24T07:27:21;3.50;;;1.53;;
11548;SDS011;61444;59.472;18.306;2023-04-24T07:29:30;2.10;;;1.60;;
11548;SDS011;61444;59.472;18.306;2023-04-24T07:31:39;2.27;;;1.63;;
11548;SDS011;61444;59.472;18.306;2023-04-24T07:33:48;3.23;;;1.70;;
11548;SDS011;61444;59.472;18.306;2023-04-24T07:35:58;3.27;;;1.53;;
11548;SDS011;61444;59.472;18.306;2023-04-24T07:38:07;2.10;;;1.50;;
11548;SDS011;61444;59.472;18.306;2023-04-24T07:40:18;2.37;;;1.37;;
11548;SDS011;61444;59.472;18.306;2023-04-24T07:42:27;1.87;;;1.40;;
11548;SDS011;61444;59.472;18.306;2023-04-24T07:44:37;2.00;;;1.50;;
11548;SDS011;61444;59.472;18.306;2023-04-24T07:46:46;1.67;;;1.50;;
11548;SDS011;61444;59.472;18.306;2023-04-24T07:48:55;3.30;;;1.60;;
11548;SDS011;61444;59.472;18.306;2023-04-24T07:51:19;1.87;;;1.43;;
11548;SDS011;61444;59.472;18.306;2023-04-24T07:53:28;2.00;;;1.57;;
11548;SDS011;61444;59.472;18.306;2023-04-24T07:55:38;2.53;;;1.30;;
11548;SDS011;61444;59.472;18.306;2023-04-24T07:57:47;2.03;;;1.43;;
11548;SDS011;61444;59.472;18.306;2023-04-24T07:59:56;3.60;;;1.87;;
11548;SDS011;61444;59.472;18.306;2023-04-24T08:02:05;2.53;;;1.37;;
11548;SDS011;61444;59.472;18.306;2023-04-24T08:04:14;2.67;;;1.83;;
11548;SDS011;61444;59.472;18.306;2023-04-24T08:06:24;3.00;;;1.50;;
11548;SDS011;61444;59.472;18.306;2023-04-24T08:08:37;1.70;;;1.40;;
11548;SDS011;61444;59.472;18.306;2023-04-24T08:10:47;4.10;;;1.97;;
11548;SDS011;61444;59.472;18.306;2023-04-24T08:12:56;4.40;;;1.47;;
11548;SDS011;61444;59.472;18.306;2023-04-24T08:15:06;2.77;;;1.97;;
11548;SDS011;61444;59.472;18.306;2023-04-24T08:17:15;3.53;;;2.07;;
11548;SDS011;61444;59.472;18.306;2023-04-24T08:19:24;2.97;;;2.07;;
11548;SDS011;61444;59.472;18.306;2023-04-24T08:21:33;2.97;;;1.80;;
11548;SDS011;61444;59.472;18.306;2023-04-24T08:23:42;3.07;;;2.13;;
11548;SDS011;61444;59.472;18.306;2023-04-24T08:25:52;2.53;;;1.60;;
11548;SDS011;61444;59.472;18.306;2023-04-24T08:28:02;2.30;;;1.53;;
11548;SDS011;61444;59.472;18.306;2023-04-24T08:30:11;2.63;;;1.73;;
11548;SDS011;61444;59.472;18.306;2023-04-24T08:32:20;2.50;;;1.70;;
11548;SDS011;61444;59.472;18.306;2023-04-24T08:34:29;2.83;;;1.67;;
11548;SDS011;61444;59.472;18.306;2023-04-24T08:36:38;2.97;;;1.67;;
11548;SDS011;61444;59.472;18.306;2023-04-24T08:38:52;2.30;;;1.60;;
11548;SDS011;61444;59.472;18.306;2023-04-24T08:41:03;2.60;;;1.60;;
11548;SDS011;61444;59.472;18.306;2023-04-24T08:43:12;2.27;;;1.40;;
11548;SDS011;61444;59.472;18.306;2023-04-24T08:45:21;2.27;;;1.50;;
11548;SDS011;61444;59.472;18.306;2023-04-24T08:47:30;1.97;;;1.60;;
11548;SDS011;61444;59.472;18.306;2023-04-24T08:49:40;2.43;;;1.60;;
11548;SDS011;61444;59.472;18.306;2023-04-24T08:51:49;1.93;;;1.33;;
11548;SDS011;61444;59.472;18.306;2023-04-24T08:53:58;3.37;;;1.67;;
11548;SDS011;61444;59.472;18.306;2023-04-24T08:56:10;2.70;;;1.70;;
11548;SDS011;61444;59.472;18.306;2023-04-24T08:58:19;2.40;;;1.80;;
11548;SDS011;61444;59.472;18.306;2023-04-24T09:00:28;2.30;;;1.40;;
11548;SDS011;61444;59.472;18.306;2023-04-24T09:02:39;3.67;;;1.60;;
11548;SDS011;61444;59.472;18.306;2023-04-24T09:04:48;2.63;;;1.70;;
11548;SDS011;61444;59.472;18.306;2023-04-24T09:06:58;2.77;;;1.57;;
11548;SDS011;61444;59.472;18.306;2023-04-24T09:09:06;2.97;;;1.50;;
11548;SDS011;61444;59.472;18.306;2023-04-24T09:11:18;2.73;;;1.50;;
11548;SDS011;61444;59.472;18.306;2023-04-24T09:13:27;1.80;;;1.50;;
11548;SDS011;61444;59.472;18.306;2023-04-24T09:15:36;1.37;;;1.23;;
11548;SDS011;61444;59.472;18.306;2023-04-24T09:17:45;1.50;;;1.20;;
11548;SDS011;61444;59.472;18.306;2023-04-24T09:19:54;2.10;;;1.43;;
11548;SDS011;61444;59.472;18.306;2023-04-24T09:22:04;3.30;;;1.40;;
11548;SDS011;61444;59.472;18.306;2023-04-24T09:24:18;1.80;;;1.43;;
11548;SDS011;61444;59.472;18.306;2023-04-24T09:26:30;2.27;;;1.60;;
11548;SDS011;61444;59.472;18.306;2023-04-24T09:28:40;2.43;;;1.50;;
11548;SDS011;61444;59.472;18.306;2023-04-24T09:30:54;2.03;;;1.40;;
11548;SDS011;61444;59.472;18.306;2023-04-24T09:33:10;3.03;;;1.40;;
11548;SDS011;61444;59.472;18.306;2023-04-24T09:35:19;3.37;;;1.67;;
11548;SDS011;61444;59.472;18.306;2023-04-24T09:37:28;2.13;;;1.40;;
11548;SDS011;61444;59.472;18.306;2023-04-24T09:39:39;1.80;;;1.30;;
11548;SDS011;61444;59.472;18.306;2023-04-24T09:41:50;1.80;;;1.50;;
11548;SDS011;61444;59.472;18.306;2023-04-24T09:46:10;1.77;;;1.23;;
11548;SDS011;61444;59.472;18.306;2023-04-24T09:48:19;2.83;;;1.30;;
11548;SDS011;61444;59.472;18.306;2023-04-24T09:50:30;1.87;;;1.43;;
11548;SDS011;61444;59.472;18.306;2023-04-24T09:52:41;2.17;;;1.60;;
11548;SDS011;61444;59.472;18.306;2023-04-24T09:54:52;1.53;;;1.30;;
11548;SDS011;61444;59.472;18.306;2023-04-24T09:57:03;3.53;;;1.53;;
11548;SDS011;61444;59.472;18.306;2023-04-24T09:59:12;2.27;;;1.80;;
11548;SDS011;61444;59.472;18.306;2023-04-24T10:01:29;3.67;;;1.90;;
11548;SDS011;61444;59.472;18.306;2023-04-24T10:03:39;2.60;;;1.80;;
11548;SDS011;61444;59.472;18.306;2023-04-24T10:05:51;3.97;;;1.90;;
11548;SDS011;61444;59.472;18.306;2023-04-24T10:08:01;2.50;;;1.70;;
11548;SDS011;61444;59.472;18.306;2023-04-24T10:10:11;1.70;;;1.40;;
11548;SDS011;61444;59.472;18.306;2023-04-24T10:12:21;2.17;;;1.50;;
11548;SDS011;61444;59.472;18.306;2023-04-24T10:14:31;2.33;;;1.50;;
11548;SDS011;61444;59.472;18.306;2023-04-24T10:16:40;1.97;;;1.53;;
11548;SDS011;61444;59.472;18.306;2023-04-24T10:18:49;2.20;;;1.43;;
11548;SDS011;61444;59.472;18.306;2023-04-24T10:20:57;2.47;;;1.50;;
11548;SDS011;61444;59.472;18.306;2023-04-24T10:23:09;2.20;;;1.50;;
11548;SDS011;61444;59.472;18.306;2023-04-24T10:25:18;1.60;;;1.43;;
11548;SDS011;61444;59.472;18.306;2023-04-24T10:27:30;2.97;;;1.53;;
11548;SDS011;61444;59.472;18.306;2023-04-24T10:29:38;3.13;;;1.40;;
11548;SDS011;61444;59.472;18.306;2023-04-24T10:31:50;2.23;;;1.70;;
11548;SDS011;61444;59.472;18.306;2023-04-24T10:33:59;2.30;;;1.70;;
11548;SDS011;61444;59.472;18.306;2023-04-24T10:36:09;4.50;;;2.00;;
11548;SDS011;61444;59.472;18.306;2023-04-24T10:38:21;2.03;;;1.83;;
11548;SDS011;61444;59.472;18.306;2023-04-24T10:40:33;2.17;;;1.40;;
11548;SDS011;61444;59.472;18.306;2023-04-24T10:42:44;2.03;;;1.43;;
11548;SDS011;61444;59.472;18.306;2023-04-24T10:44:55;3.23;;;1.63;;
11548;SDS011;61444;59.472;18.306;2023-04-24T10:47:04;2.50;;;1.90;;
11548;SDS011;61444;59.472;18.306;2023-04-24T10:49:16;3.13;;;1.83;;
11548;SDS011;61444;59.472;18.306;2023-04-24T10:51:42;2.87;;;1.83;;
11548;SDS011;61444;59.472;18.306;2023-04-24T10:53:53;3.03;;;2.00;;
11548;SDS011;61444;59.472;18.306;2023-04-24T10:56:06;1.70;;;1.60;;
11548;SDS011;61444;59.472;18.306;2023-04-24T10:58:23;2.00;;;1.80;;
11548;SDS011;61444;59.472;18.306;2023-04-24T11:00:32;2.67;;;2.10;;
11548;SDS011;61444;59.472;18.306;2023-04-24T11:02:45;3.03;;;1.90;;
11548;SDS011;61444;59.472;18.306;2023-04-24T11:05:01;2.23;;;1.50;;
11548;SDS011;61444;59.472;18.306;2023-04-24T11:07:11;3.23;;;2.20;;
11548;SDS011;61444;59.472;18.306;2023-04-24T11:09:21;2.20;;;1.90;;
11548;SDS011;61444;59.472;18.306;2023-04-24T11:11:35;2.57;;;2.03;;
11548;SDS011;61444;59.472;18.306;2023-04-24T11:14:04;2.10;;;1.90;;
11548;SDS011;61444;59.472;18.306;2023-04-24T11:16:15;3.73;;;2.03;;
11548;SDS011;61444;59.472;18.306;2023-04-24T11:18:24;5.60;;;2.10;;
11548;SDS011;61444;59.472;18.306;2023-04-24T11:20:33;2.60;;;2.40;;
11548;SDS011;61444;59.472;18.306;2023-04-24T11:22:41;2.80;;;2.10;;
11548;SDS011;61444;59.472;18.306;2023-04-24T11:24:50;3.07;;;2.03;;
11548;SDS011;61444;59.472;18.306;2023-04-24T11:27:06;3.13;;;1.97;;
11548;SDS011;61444;59.472;18.306;2023-04-24T11:29:21;4.07;;;2.07;;
11548;SDS011;61444;59.472;18.306;2023-04-24T11:31:34;3.20;;;2.20;;
11548;SDS011;61444;59.472;18.306;2023-04-24T11:33:43;2.90;;;2.40;;
11548;SDS011;61444;59.472;18.306;2023-04-24T11:35:52;3.17;;;2.20;;
11548;SDS011;61444;59.472;18.306;2023-04-24T11:38:01;3.60;;;2.27;;
11548;SDS011;61444;59.472;18.306;2023-04-24T11:40:15;2.60;;;2.07;;
11548;SDS011;61444;59.472;18.306;2023-04-24T11:42:26;3.60;;;2.10;;
11548;SDS011;61444;59.472;18.306;2023-04-24T11:44:38;5.53;;;2.57;;
11548;SDS011;61444;59.472;18.306;2023-04-24T11:46:49;2.50;;;2.30;;
11548;SDS011;61444;59.472;18.306;2023-04-24T11:48:58;3.20;;;2.10;;
11548;SDS011;61444;59.472;18.306;2023-04-24T11:51:07;3.87;;;2.47;;
11548;SDS011;61444;59.472;18.306;2023-04-24T11:53:16;3.83;;;2.00;;
11548;SDS011;61444;59.472;18.306;2023-04-24T11:55:28;2.97;;;2.30;;
11548;SDS011;61444;59.472;18.306;2023-04-24T11:57:37;2.57;;;2.20;;
11548;SDS011;61444;59.472;18.306;2023-04-24T11:59:52;4.00;;;2.30;;
11548;SDS011;61444;59.472;18.306;2023-04-24T12:02:02;3.43;;;2.50;;
11548;SDS011;61444;59.472;18.306;2023-04-24T12:04:13;5.57;;;2.20;;
11548;SDS011;61444;59.472;18.306;2023-04-24T12:06:23;3.60;;;2.20;;
11548;SDS011;61444;59.472;18.306;2023-04-24T12:08:32;4.50;;;2.33;;
11548;SDS011;61444;59.472;18.306;2023-04-24T12:10:44;3.87;;;2.03;;
11548;SDS011;61444;59.472;18.306;2023-04-24T12:12:53;3.80;;;2.30;;
11548;SDS011;61444;59.472;18.306;2023-04-24T12:15:08;3.03;;;2.10;;
11548;SDS011;61444;59.472;18.306;2023-04-24T12:17:23;3.40;;;2.27;;
11548;SDS011;61444;59.472;18.306;2023-04-24T12:19:34;4.30;;;2.60;;
11548;SDS011;61444;59.472;18.306;2023-04-24T12:21:44;4.27;;;2.20;;
11548;SDS011;61444;59.472;18.306;2023-04-24T12:24:07;4.13;;;2.53;;
11548;SDS011;61444;59.472;18.306;2023-04-24T12:26:17;3.90;;;2.57;;
11548;SDS011;61444;59.472;18.306;2023-04-24T12:28:34;3.97;;;2.53;;
11548;SDS011;61444;59.472;18.306;2023-04-24T12:30:47;3.13;;;2.03;;
11548;SDS011;61444;59.472;18.306;2023-04-24T12:32:58;6.10;;;2.93;;
11548;SDS011;61444;59.472;18.306;2023-04-24T12:35:08;2.83;;;2.50;;
11548;SDS011;61444;59.472;18.306;2023-04-24T12:37:18;3.63;;;2.70;;
11548;SDS011;61444;59.472;18.306;2023-04-24T12:39:27;4.30;;;2.70;;
11548;SDS011;61444;59.472;18.306;2023-04-24T12:41:36;4.83;;;2.70;;
11548;SDS011;61444;59.472;18.306;2023-04-24T12:43:51;6.37;;;2.80;;
11548;SDS011;61444;59.472;18.306;2023-04-24T12:46:02;2.77;;;2.37;;
11548;SDS011;61444;59.472;18.306;2023-04-24T12:48:11;2.93;;;2.57;;
11548;SDS011;61444;59.472;18.306;2023-04-24T12:50:21;4.50;;;2.73;;
11548;SDS011;61444;59.472;18.306;2023-04-24T12:52:31;4.77;;;2.00;;